Quad City International Airport
KMLI : rendu visible

Aérodrome :











RETROUVEZ-NOUS SUR...

 
LOGIN :

S'inscrire | Disclaimer

   EN    FR    IT 

 









Légende :    VFR   VFR Marginal   IFR   IFR Intensif   IFR Très Intensif
Visi : 
Plafond : 
>= 8 km
>= 3000ft
5 à 8 km
1000 à 3000 ft
1500m à 5 km
500 à 1000 ft
800 à 1500m
200 à 500 ft
< 800m
< 200 ft
Symboles :   Orages  Brouillard  Fortes neiges  Fortes précipitations  Vent > 20 kt






- Altitude de l'aérodrome : 590 ft
- Code IATA : MLI


KMLI - Quad City International

DERNIER METAR :
  • 192221Z 34007KT 10SM BKN026 OVC090 M04/M09 A3059 RMK AO2 T10391094

METARs EXPIRÉS :
  • 192152Z 33006KT 10SM BKN095 M02/M10 A3059 RMK AO2 SLP370 T10221100
  • 192052Z 33008KT 10SM R09/0800VP6000FT OVC100 M03/M12 A3060 RMK AO2 SLP371 T10281122 56011
  • 191952Z 36007KT 10SM OVC090 M02/M12 A3060 RMK AO2 SLP371 T10221117

TAF KMLI
Valide du 19 à 18h jusqu'au 20 à 18h UTC


191727Z 1918/2018 34007KT P6SM BKN080
FM192100 35007KT 6SM -SN BKN035
FM200000 35007KT P6SM OVC050
FM200400 34008KT 5SM -SN OVC035
FM200700 35009KT P6SM BKN050



MET'MAP, la Météo Aéronautique d'un coup d'oeil ! - Copyright ORBIFLY Décembre 2007 - Disclaimer

ORBIFLY MET'MAP TEAM :

Programmation & Développement : Alexandra Zaïnal
Sur une idée originale de : Baudouin d'Aumeries
Assistance à la programmation : Marc-Olivier Méhu
Soutien technique & logistique : Manuel Goepfert

Contact : metmap@orbifly.com




SOURCES & CREDITS :

   NOAA       Earth
Advisory